Terminal Aerodrome Forecast
Issued by NWS Charleston, WV

Current Version | Previous Version | Text Only | Print | Product List | Glossary Off
Versions: 1 2 3 4 5 6 7 8 9 10 11 12 13 14 15 16 17 18 19 20

000
FTUS41 KRLX 201732
TAFPKB
TAF
KPKB 201732Z 2018/2118 33004KT P6SM FEW045
     FM202300 VRB03KT P6SM SKC
     FM210900 00000KT 3SM BR FEW001 SCT250
     FM211300 VRB03KT P6SM SKC
     FM211600 VRB03KT P6SM FEW045=

USA.gov is the U.S. government's official web portal to all federal, state and local government web resources and services.